Terminal Aerodrome Forecast
Issued by NWS

Home | Current Version | Previous Version | Text Only | Print | Product List | Glossary Off
Versions: 1 2 3 4 5 6 7 8 9 10 11 12 13 14 15

000
FTUS43 KMPX 151100 RRA
TAFRNH
TAF
KRNH 151142Z 1512/1612 32007KT P6SM SKC
     FM151800 28007KT P6SM SCT250
     FM152200 20006KT P6SM BKN150
     FM161100 12015G22KT P6SM -SN OVC050=

USA.gov is the U.S. government's official web portal to all federal, state and local government web resources and services.